Oakes, North Dakota
Current Conditions -  °F | °C
As of 4:15 AM on Wednesday 26 Nov 2014 (Local Time) from KGWR Reporting Station
Overcast Overcast  
Wind Chill: -20°   Ceiling: 600
Heat Index: -10°   Visibility: 10mi
Dew Point: -12°   Wind: 21mph
Humidity: 86%   Direction: 10°N
Pressure: 30.17"   Gusts: NA
Location:  46.14°N, 98.09°W
Report Text: KGWR 261015Z AUTO 01018KT 10SM FEW002 BKN006 OVC055 M10/M12 A3017 RMK A01 P000
Loading
Personal Weather Stations






























Interactive Weather Map New forecast layout! Learn more

10-Day Weather Forecast

Advertisements
Track Severe Weather on mobile